Time;durP1;ratioP1;P1;durP2;ratioP2;P2;SDS_P1;SDS_P2;PMS_P1;PMS_P2;Temp;Humidity;BMP_temperature;BMP_pressure;BME280_temperature;BME280_humidity;BME280_pressure;Samples;Min_cycle;Max_cycle;Signal;HPM_P1;HPM_P2
2023/07/19 00:00:24;;;;;;;7.53;3.55;;;18.60;99.90;;;;;;5091372;28;20081;-49
2023/07/19 00:02:50;;;;;;;7.45;3.58;;;18.60;99.90;;;;;;5110418;28;20031;-47
2023/07/19 00:05:15;;;;;;;6.43;3.80;;;18.60;99.90;;;;;;5111875;28;20036;-47
2023/07/19 00:07:41;;;;;;;7.75;4.25;;;18.60;99.90;;;;;;5092839;28;20492;-49
2023/07/19 00:10:07;;;;;;;8.75;4.00;;;18.50;99.90;;;;;;5099057;28;20523;-49
2023/07/19 00:12:33;;;;;;;8.10;3.90;;;18.50;99.90;;;;;;5111801;28;20119;-49
2023/07/19 00:14:59;;;;;;;7.47;3.60;;;18.50;99.90;;;;;;5112024;28;20188;-48
2023/07/19 00:17:25;;;;;;;7.15;4.43;;;18.50;99.90;;;;;;5112201;28;20546;-51
2023/07/19 00:19:50;;;;;;;6.65;4.13;;;18.40;99.90;;;;;;5112246;28;20395;-46
2023/07/19 00:22:16;;;;;;;6.70;3.80;;;18.40;99.90;;;;;;5110378;28;20035;-51
2023/07/19 00:24:42;;;;;;;8.60;4.05;;;18.40;99.90;;;;;;5112587;28;20112;-51
2023/07/19 00:27:07;;;;;;;7.90;4.20;;;18.30;99.90;;;;;;5111991;28;20063;-45
2023/07/19 00:29:33;;;;;;;6.72;4.25;;;18.30;99.90;;;;;;5112074;28;20036;-47
2023/07/19 00:31:59;;;;;;;9.43;3.92;;;18.20;99.90;;;;;;5112120;28;20122;-47
2023/07/19 00:34:24;;;;;;;8.48;4.18;;;18.30;99.90;;;;;;5112172;28;20104;-51
2023/07/19 00:36:50;;;;;;;8.18;4.60;;;18.20;99.90;;;;;;5111988;28;20078;-52
2023/07/19 00:39:15;;;;;;;7.53;4.07;;;18.20;99.90;;;;;;5093683;28;20066;-51
2023/07/19 00:41:41;;;;;;;7.50;4.03;;;18.10;99.90;;;;;;5112182;28;20497;-49
2023/07/19 00:44:07;;;;;;;8.40;5.22;;;18.10;99.90;;;;;;5111769;28;20036;-50
2023/07/19 00:46:33;;;;;;;9.57;4.57;;;18.00;99.90;;;;;;5111670;28;20042;-49
2023/07/19 00:48:59;;;;;;;8.85;4.65;;;17.90;99.90;;;;;;5111961;28;20071;-52
2023/07/19 00:51:25;;;;;;;6.38;3.75;;;17.90;99.90;;;;;;5110946;28;20044;-49
2023/07/19 00:53:52;;;;;;;5.60;3.92;;;17.90;99.90;;;;;;5111725;28;20363;-53
2023/07/19 00:56:20;;;;;;;8.85;4.72;;;17.90;99.90;;;;;;5112007;28;20081;-50
2023/07/19 00:58:48;;;;;;;6.97;4.45;;;17.90;99.90;;;;;;5093188;28;20036;-52
2023/07/19 01:01:14;;;;;;;6.95;4.47;;;17.90;99.90;;;;;;5111749;28;20068;-51
2023/07/19 01:03:40;;;;;;;8.13;4.70;;;17.80;99.90;;;;;;5111683;28;20595;-52
2023/07/19 01:06:06;;;;;;;9.10;4.85;;;17.90;99.90;;;;;;5111457;28;20123;-48
2023/07/19 01:08:32;;;;;;;9.40;5.07;;;17.90;99.90;;;;;;5111303;28;20149;-52
2023/07/19 01:10:59;;;;;;;7.43;5.25;;;18.00;99.90;;;;;;5111321;28;20044;-51
2023/07/19 01:13:24;;;;;;;11.18;5.88;;;18.00;99.90;;;;;;5093406;28;20074;-49
2023/07/19 01:15:51;;;;;;;8.32;5.18;;;18.00;99.90;;;;;;5111604;28;20063;-50
2023/07/19 01:18:18;;;;;;;7.43;4.82;;;18.00;99.90;;;;;;5111510;28;20039;-52
2023/07/19 01:20:44;;;;;;;8.52;5.15;;;18.00;99.90;;;;;;5092813;28;20039;-48
2023/07/19 01:23:09;;;;;;;9.18;4.70;;;17.90;99.90;;;;;;5110811;28;20093;-52
2023/07/19 01:25:35;;;;;;;9.13;5.45;;;17.90;99.90;;;;;;5111292;28;20050;-47
2023/07/19 01:28:01;;;;;;;9.48;5.45;;;17.90;99.90;;;;;;5111061;28;20379;-52
2023/07/19 01:30:26;;;;;;;7.68;5.25;;;17.90;99.90;;;;;;5111088;28;20120;-50
2023/07/19 01:32:52;;;;;;;9.80;5.50;;;17.90;99.90;;;;;;5111225;28;20077;-50
2023/07/19 01:35:18;;;;;;;10.00;5.68;;;17.90;99.90;;;;;;5111273;28;20039;-52
2023/07/19 01:37:44;;;;;;;9.75;5.40;;;17.90;99.90;;;;;;5089319;28;20589;-50
2023/07/19 01:40:11;;;;;;;9.48;5.80;;;17.90;99.90;;;;;;5089216;28;20032;-51
2023/07/19 01:42:37;;;;;;;9.00;6.00;;;17.90;99.90;;;;;;5108047;28;20036;-49
2023/07/19 01:45:03;;;;;;;9.73;6.40;;;17.90;99.90;;;;;;5111167;28;20027;-49
2023/07/19 01:47:29;;;;;;;9.93;6.43;;;17.80;99.90;;;;;;5111090;28;20093;-48
2023/07/19 01:49:55;;;;;;;8.77;6.40;;;17.80;99.90;;;;;;5110988;28;20045;-49
2023/07/19 01:52:21;;;;;;;11.00;6.60;;;17.70;99.90;;;;;;5110441;28;20044;-48
2023/07/19 01:54:46;;;;;;;9.05;6.50;;;17.80;99.90;;;;;;5110865;28;20071;-48
2023/07/19 01:57:12;;;;;;;9.40;6.15;;;17.80;99.90;;;;;;5110689;28;20850;-52
2023/07/19 01:59:38;;;;;;;8.73;6.93;;;17.80;99.90;;;;;;5092420;28;20036;-46
2023/07/19 02:02:04;;;;;;;10.82;6.53;;;17.80;99.90;;;;;;5110916;28;20042;-48
2023/07/19 02:04:30;;;;;;;12.02;6.78;;;17.70;99.90;;;;;;5114069;28;20078;-52
2023/07/19 02:06:56;;;;;;;12.93;7.80;;;17.70;99.90;;;;;;5114846;28;20031;-53
2023/07/19 02:09:22;;;;;;;11.57;7.05;;;17.70;99.90;;;;;;5114915;28;20039;-51
2023/07/19 02:11:48;;;;;;;10.15;7.65;;;17.80;99.90;;;;;;5096453;28;20036;-48
2023/07/19 02:14:13;;;;;;;13.73;7.60;;;17.70;99.90;;;;;;5093462;28;20040;-51
2023/07/19 02:16:39;;;;;;;11.77;6.80;;;17.70;99.90;;;;;;5105453;28;20059;-46
2023/07/19 02:19:06;;;;;;;10.55;8.02;;;17.80;99.90;;;;;;5114628;28;20086;-51
2023/07/19 02:21:32;;;;;;;11.38;7.38;;;17.70;99.90;;;;;;5114219;28;20035;-51
2023/07/19 02:23:57;;;;;;;10.07;7.18;;;17.80;99.90;;;;;;5093345;28;20422;-49
2023/07/19 02:26:24;;;;;;;11.23;7.07;;;17.70;99.90;;;;;;5093775;28;20070;-47
2023/07/19 02:28:50;;;;;;;12.90;7.68;;;17.80;99.90;;;;;;5094413;28;20047;-50
2023/07/19 02:31:16;;;;;;;10.70;6.88;;;17.70;99.90;;;;;;5094358;28;20028;-49
2023/07/19 02:33:41;;;;;;;10.57;6.90;;;17.70;99.90;;;;;;5094303;28;20036;-50
2023/07/19 02:36:11;;;;;;;9.35;7.30;;;17.70;99.90;;;;;;5093804;28;20040;-49
2023/07/19 02:38:36;;;;;;;8.85;7.43;;;17.60;99.90;;;;;;5094037;28;20111;-50
2023/07/19 02:41:02;;;;;;;9.85;7.22;;;17.60;99.90;;;;;;5093736;28;20127;-49
2023/07/19 02:43:28;;;;;;;10.68;7.22;;;17.50;99.90;;;;;;5093967;28;20067;-47
2023/07/19 02:45:54;;;;;;;12.32;6.97;;;17.50;99.90;;;;;;5093841;28;20031;-49
2023/07/19 02:48:21;;;;;;;11.15;7.75;;;17.50;99.90;;;;;;5102691;28;20027;-48
2023/07/19 02:50:49;;;;;;;9.63;6.90;;;17.50;99.90;;;;;;5113826;28;20040;-49
2023/07/19 02:53:15;;;;;;;12.18;7.45;;;17.50;99.90;;;;;;5113533;28;20036;-46
2023/07/19 02:55:47;;;;;;;10.50;7.18;;;17.50;99.90;;;;;;5113783;28;20048;-47
2023/07/19 02:58:14;;;;;;;12.30;7.07;;;17.40;99.90;;;;;;5114431;28;20486;-47
2023/07/19 03:00:41;;;;;;;10.10;7.15;;;17.40;99.90;;;;;;5095408;28;20063;-47
2023/07/19 03:03:07;;;;;;;10.55;7.40;;;17.30;99.90;;;;;;5113993;28;20040;-50
2023/07/19 03:05:34;;;;;;;9.60;7.38;;;17.30;99.90;;;;;;5113734;28;20054;-48
2023/07/19 03:08:01;;;;;;;11.68;7.40;;;17.30;99.90;;;;;;5109088;28;20047;-47
2023/07/19 03:10:27;;;;;;;12.13;8.18;;;17.30;99.90;;;;;;5093643;28;20093;-47
2023/07/19 03:12:53;;;;;;;12.98;9.02;;;17.30;99.90;;;;;;5103466;28;20042;-49
2023/07/19 03:15:18;;;;;;;12.52;8.65;;;17.30;99.90;;;;;;5113094;28;20032;-46
2023/07/19 03:17:44;;;;;;;13.80;9.07;;;17.30;99.90;;;;;;5113245;28;20043;-50
2023/07/19 03:20:11;;;;;;;14.57;9.98;;;17.30;99.90;;;;;;5113555;28;20036;-48
2023/07/19 03:22:36;;;;;;;13.32;9.93;;;17.30;99.90;;;;;;5112907;28;20066;-48
2023/07/19 03:25:02;;;;;;;13.18;9.88;;;17.30;99.90;;;;;;5113495;28;20035;-50
2023/07/19 03:27:28;;;;;;;10.82;9.55;;;17.30;99.90;;;;;;5113180;28;20087;-47
2023/07/19 03:29:54;;;;;;;11.88;8.85;;;17.10;99.90;;;;;;5113621;28;20032;-48
2023/07/19 03:32:19;;;;;;;11.65;9.05;;;17.10;99.90;;;;;;5113506;28;20044;-45
2023/07/19 03:34:45;;;;;;;13.32;10.13;;;17.00;99.90;;;;;;5113082;28;20079;-47
2023/07/19 03:37:10;;;;;;;13.57;9.05;;;17.00;99.90;;;;;;5113339;28;20036;-49
2023/07/19 03:39:36;;;;;;;12.45;9.82;;;16.90;99.90;;;;;;5107191;28;20036;-49
2023/07/19 03:42:02;;;;;;;11.13;9.10;;;16.90;99.90;;;;;;5110624;28;20509;-53
2023/07/19 03:44:27;;;;;;;10.75;9.00;;;16.90;99.90;;;;;;5093833;28;20070;-50
2023/07/19 03:46:53;;;;;;;11.82;8.88;;;16.80;99.90;;;;;;5111839;28;20032;-47
2023/07/19 03:49:19;;;;;;;13.27;9.55;;;16.80;99.90;;;;;;5112099;28;20517;-47
2023/07/19 03:51:44;;;;;;;9.75;8.45;;;16.80;99.90;;;;;;5111752;28;20093;-52
2023/07/19 03:54:10;;;;;;;12.57;7.15;;;16.90;99.90;;;;;;5091212;28;20067;-49
2023/07/19 03:56:36;;;;;;;11.70;6.47;;;17.00;99.90;;;;;;5106353;28;20105;-48
2023/07/19 03:59:01;;;;;;;10.57;6.15;;;16.90;99.90;;;;;;5113046;28;20051;-50
2023/07/19 04:01:27;;;;;;;8.10;4.82;;;16.90;99.90;;;;;;5094416;28;20497;-52
2023/07/19 04:03:52;;;;;;;9.38;4.30;;;16.90;99.90;;;;;;5113073;28;20470;-47
2023/07/19 04:06:18;;;;;;;7.82;3.85;;;16.90;99.90;;;;;;5075161;28;20039;-49
2023/07/19 04:08:44;;;;;;;8.25;3.58;;;16.90;99.90;;;;;;5092416;28;20046;-51
2023/07/19 04:11:10;;;;;;;5.93;3.60;;;16.80;99.90;;;;;;5092492;28;20441;-48
2023/07/19 04:13:36;;;;;;;7.75;3.20;;;16.80;99.90;;;;;;5092383;28;20491;-46
2023/07/19 04:16:01;;;;;;;4.78;2.90;;;16.80;99.90;;;;;;5093970;28;20054;-49
2023/07/19 04:18:27;;;;;;;7.35;2.67;;;16.80;99.90;;;;;;5096533;28;20035;-48
2023/07/19 04:20:57;;;;;;;4.88;2.60;;;16.80;99.90;;;;;;5092230;28;20123;-47
2023/07/19 04:23:23;;;;;;;6.22;2.70;;;16.80;99.90;;;;;;5092988;28;20511;-48
2023/07/19 04:25:50;;;;;;;6.47;2.42;;;16.80;99.90;;;;;;5093811;28;20097;-49
2023/07/19 04:28:16;;;;;;;5.25;2.80;;;16.80;99.90;;;;;;5108683;28;20047;-48
2023/07/19 04:30:42;;;;;;;5.93;3.03;;;16.80;99.90;;;;;;5093907;28;20089;-47
2023/07/19 04:33:08;;;;;;;4.55;2.70;;;16.80;99.90;;;;;;5100324;28;20051;-50
2023/07/19 04:35:33;;;;;;;7.18;3.45;;;16.80;99.90;;;;;;5091451;28;20176;-48
2023/07/19 04:37:59;;;;;;;7.68;3.28;;;16.80;99.90;;;;;;5094813;28;20043;-50
2023/07/19 04:40:25;;;;;;;7.85;3.35;;;16.80;99.90;;;;;;5111869;28;20035;-48
2023/07/19 04:42:50;;;;;;;5.13;2.25;;;16.80;99.90;;;;;;5112188;28;20118;-50
2023/07/19 04:45:16;;;;;;;4.35;1.95;;;16.80;99.90;;;;;;5112016;28;20031;-48
2023/07/19 04:47:42;;;;;;;6.68;2.25;;;16.70;99.90;;;;;;5111899;28;20553;-46
2023/07/19 04:50:09;;;;;;;5.32;2.00;;;16.70;99.90;;;;;;5099149;28;20047;-49
2023/07/19 04:52:35;;;;;;;4.93;1.80;;;16.70;99.90;;;;;;5091144;28;20040;-48
2023/07/19 04:55:02;;;;;;;5.03;1.65;;;16.70;99.90;;;;;;5091332;28;20089;-49
2023/07/19 04:57:27;;;;;;;3.80;1.20;;;16.70;99.90;;;;;;5108409;28;20417;-52
2023/07/19 04:59:53;;;;;;;5.50;1.30;;;16.60;99.90;;;;;;5111617;28;20139;-47
2023/07/19 05:02:19;;;;;;;2.75;1.27;;;16.60;99.90;;;;;;5111629;28;20126;-45
2023/07/19 05:04:44;;;;;;;3.17;1.30;;;16.60;99.90;;;;;;5111358;28;20125;-50
2023/07/19 05:07:10;;;;;;;4.65;1.30;;;16.60;99.90;;;;;;5111288;28;20501;-50
2023/07/19 05:09:36;;;;;;;4.95;1.38;;;16.60;99.90;;;;;;5111331;28;20028;-52
2023/07/19 05:12:02;;;;;;;4.10;1.23;;;16.50;99.90;;;;;;5111286;28;20043;-50
2023/07/19 05:14:29;;;;;;;4.63;1.55;;;16.60;99.90;;;;;;5111618;28;20050;-51
2023/07/19 05:16:54;;;;;;;3.97;1.38;;;16.60;99.90;;;;;;5111369;28;20078;-48
2023/07/19 05:19:20;;;;;;;4.78;1.42;;;16.60;99.90;;;;;;5111176;28;20071;-50
2023/07/19 05:21:46;;;;;;;3.08;1.27;;;16.60;99.90;;;;;;5111071;28;20035;-52
2023/07/19 05:24:12;;;;;;;6.55;1.50;;;16.60;99.90;;;;;;5111268;28;20036;-48
2023/07/19 05:26:39;;;;;;;6.07;1.80;;;16.70;99.90;;;;;;5111146;28;20122;-51
2023/07/19 05:29:05;;;;;;;5.30;1.60;;;16.70;99.90;;;;;;5111154;28;20479;-52
2023/07/19 05:31:31;;;;;;;4.40;1.48;;;16.70;99.90;;;;;;5111380;28;20036;-47
2023/07/19 05:33:57;;;;;;;4.63;1.52;;;16.70;99.90;;;;;;5110851;28;20039;-51
2023/07/19 05:36:23;;;;;;;4.65;1.50;;;16.70;99.90;;;;;;5106812;28;20035;-46
2023/07/19 05:38:48;;;;;;;5.13;1.55;;;16.80;99.90;;;;;;5099117;28;20457;-49
2023/07/19 05:41:14;;;;;;;4.03;1.27;;;16.80;99.90;;;;;;5110864;28;20040;-51
2023/07/19 05:43:40;;;;;;;4.63;1.42;;;16.90;99.90;;;;;;5110639;28;20031;-47
2023/07/19 05:46:07;;;;;;;3.20;1.30;;;16.90;99.90;;;;;;5089069;28;20051;-48
2023/07/19 05:48:33;;;;;;;3.63;1.52;;;16.90;99.90;;;;;;5109599;28;20039;-48
2023/07/19 05:51:04;;;;;;;4.30;1.60;;;17.00;99.90;;;;;;5110673;28;20172;-50
2023/07/19 05:53:30;;;;;;;4.47;1.23;;;17.00;99.90;;;;;;5110588;28;20421;-49
2023/07/19 05:55:56;;;;;;;4.32;1.20;;;17.10;99.90;;;;;;5110360;28;20044;-47
2023/07/19 05:58:22;;;;;;;3.67;1.13;;;17.10;99.90;;;;;;5110866;28;20414;-50
2023/07/19 06:00:48;;;;;;;3.38;1.10;;;17.10;99.90;;;;;;5089261;28;20040;-51
2023/07/19 06:03:17;;;;;;;4.07;1.30;;;17.20;99.90;;;;;;5092314;28;20097;-48
2023/07/19 06:05:43;;;;;;;5.45;1.55;;;17.20;99.90;;;;;;5110877;28;20035;-50
2023/07/19 06:08:10;;;;;;;6.00;1.58;;;17.20;99.90;;;;;;5090957;28;20047;-53
2023/07/19 06:10:36;;;;;;;4.50;1.30;;;17.30;99.90;;;;;;5111012;28;20043;-50
2023/07/19 06:13:03;;;;;;;5.18;1.50;;;17.30;99.90;;;;;;5110664;28;20036;-52
2023/07/19 06:15:32;;;;;;;3.58;1.38;;;17.40;99.90;;;;;;5110746;28;20036;-51
2023/07/19 06:17:58;;;;;;;3.90;1.10;;;17.40;99.90;;;;;;5099395;28;20040;-46
2023/07/19 06:20:24;;;;;;;5.68;1.58;;;17.50;99.90;;;;;;5089033;28;20032;-49
2023/07/19 06:22:50;;;;;;;4.88;1.27;;;17.50;99.90;;;;;;5090099;28;20391;-48
2023/07/19 06:25:16;;;;;;;3.78;1.42;;;17.60;99.90;;;;;;5088894;28;20036;-52
2023/07/19 06:27:42;;;;;;;4.85;1.65;;;17.60;99.90;;;;;;5109244;28;20036;-48
2023/07/19 06:30:09;;;;;;;5.00;1.50;;;17.70;99.90;;;;;;5110475;28;20040;-53
2023/07/19 06:32:36;;;;;;;5.05;1.70;;;17.70;99.90;;;;;;5090127;28;20132;-47
2023/07/19 06:35:03;;;;;;;5.00;1.50;;;17.70;99.90;;;;;;5090166;28;20044;-48
2023/07/19 06:37:29;;;;;;;4.90;1.65;;;17.70;99.90;;;;;;5090533;28;20036;-47
2023/07/19 06:39:54;;;;;;;5.15;1.38;;;17.80;99.90;;;;;;5090091;28;20510;-50
2023/07/19 06:42:20;;;;;;;6.15;1.60;;;17.80;99.90;;;;;;5089550;28;20491;-51
2023/07/19 06:44:47;;;;;;;6.68;1.20;;;17.90;99.90;;;;;;5090242;28;20035;-50
2023/07/19 06:47:14;;;;;;;4.70;1.40;;;17.90;99.90;;;;;;5090195;28;20105;-48
2023/07/19 06:49:40;;;;;;;3.03;1.38;;;17.90;99.90;;;;;;5090229;28;20036;-49
2023/07/19 06:52:06;;;;;;;5.63;1.42;;;17.90;99.90;;;;;;5093337;28;20051;-49
2023/07/19 06:54:32;;;;;;;2.65;1.02;;;18.00;99.90;;;;;;5093543;28;20047;-50
2023/07/19 06:56:58;;;;;;;4.22;1.25;;;18.00;99.90;;;;;;5097273;28;20047;-49
2023/07/19 06:59:24;;;;;;;3.65;1.10;;;18.00;99.90;;;;;;5093880;28;20055;-50
2023/07/19 07:01:49;;;;;;;5.03;1.17;;;18.10;99.90;;;;;;5093265;28;20522;-47
2023/07/19 07:04:15;;;;;;;3.75;1.08;;;18.10;99.90;;;;;;5093827;28;20024;-50
2023/07/19 07:06:41;;;;;;;4.93;1.02;;;18.10;99.90;;;;;;5095606;28;20039;-48
2023/07/19 07:09:07;;;;;;;4.47;1.15;;;18.10;99.90;;;;;;5110654;28;20035;-47
2023/07/19 07:11:32;;;;;;;4.93;1.40;;;18.20;99.90;;;;;;5093658;28;20036;-52
2023/07/19 07:13:58;;;;;;;4.88;1.20;;;18.10;99.90;;;;;;5105737;28;20035;-50
2023/07/19 07:16:24;;;;;;;4.10;1.23;;;18.00;99.90;;;;;;5086688;28;20038;-46
2023/07/19 07:18:49;;;;;;;3.80;1.00;;;18.00;99.90;;;;;;5081485;28;20043;-47
2023/07/19 07:21:15;;;;;;;4.78;1.20;;;18.00;99.90;;;;;;5080224;28;20051;-46
2023/07/19 07:23:41;;;;;;;4.72;1.13;;;18.00;99.90;;;;;;5097420;28;20115;-46
2023/07/19 07:26:07;;;;;;;2.97;1.10;;;18.00;99.90;;;;;;5088626;28;20130;-43
2023/07/19 07:28:33;;;;;;;3.80;1.15;;;18.00;99.90;;;;;;5098957;28;20036;-47
2023/07/19 07:31:05;;;;;;;5.18;1.23;;;18.00;99.90;;;;;;5104703;28;20088;-48
2023/07/19 07:33:31;;;;;;;4.10;1.23;;;18.00;99.90;;;;;;5081614;28;20402;-49
2023/07/19 07:35:57;;;;;;;4.78;1.10;;;18.00;99.90;;;;;;5093971;28;20043;-50
2023/07/19 07:38:23;;;;;;;4.03;1.08;;;18.00;99.90;;;;;;5094350;28;20032;-47
2023/07/19 07:40:48;;;;;;;4.10;1.20;;;18.10;99.90;;;;;;5091346;28;20113;-46
2023/07/19 07:43:14;;;;;;;4.43;1.50;;;18.10;99.90;;;;;;5092027;28;20101;-48
2023/07/19 07:45:40;;;;;;;4.75;1.30;;;18.10;99.90;;;;;;5090855;28;20035;-45
2023/07/19 07:48:06;;;;;;;4.13;1.20;;;18.10;99.90;;;;;;5091330;28;20467;-47
2023/07/19 07:50:31;;;;;;;5.70;1.38;;;18.20;99.90;;;;;;5101420;28;20036;-49
2023/07/19 07:52:57;;;;;;;5.60;1.67;;;18.30;99.90;;;;;;5090689;28;20071;-47
2023/07/19 07:55:23;;;;;;;6.55;1.55;;;18.30;99.90;;;;;;5091118;28;20113;-46
2023/07/19 07:57:49;;;;;;;5.45;1.40;;;18.40;99.90;;;;;;5084106;28;20530;-49
2023/07/19 08:00:17;;;;;;;4.50;1.35;;;18.40;99.90;;;;;;5085381;28;20402;-50
2023/07/19 08:02:43;;;;;;;5.22;1.33;;;18.50;99.90;;;;;;5087400;28;20083;-45
2023/07/19 08:05:09;;;;;;;5.05;1.35;;;18.60;99.90;;;;;;5087982;28;20040;-48
2023/07/19 08:07:35;;;;;;;5.25;1.48;;;18.70;99.90;;;;;;5086850;28;20530;-48
2023/07/19 08:10:01;;;;;;;5.53;1.67;;;18.70;99.90;;;;;;5086872;28;20024;-47
2023/07/19 08:12:27;;;;;;;7.45;1.50;;;18.80;99.90;;;;;;5090268;28;20040;-50
2023/07/19 08:14:53;;;;;;;5.15;2.00;;;18.90;99.90;;;;;;5087784;28;20082;-49
2023/07/19 08:17:19;;;;;;;5.65;1.80;;;19.00;99.90;;;;;;5088074;28;20497;-48
2023/07/19 08:19:44;;;;;;;4.13;1.55;;;19.10;99.90;;;;;;5088527;28;20043;-49
2023/07/19 08:22:24;;;;;;;6.10;2.03;;;19.20;99.90;;;;;;5068988;28;20146;-46
2023/07/19 08:24:50;;;;;;;5.05;1.67;;;19.20;99.90;;;;;;5085892;28;20036;-48
2023/07/19 08:27:16;;;;;;;5.90;1.60;;;19.30;99.90;;;;;;5087827;28;20043;-48
2023/07/19 08:29:41;;;;;;;5.78;1.73;;;19.30;99.90;;;;;;5087439;28;20114;-48
2023/07/19 08:32:07;;;;;;;3.58;1.52;;;19.30;99.90;;;;;;5089282;28;20072;-50
2023/07/19 08:34:33;;;;;;;6.30;2.17;;;19.40;99.90;;;;;;5089335;28;20040;-48
2023/07/19 08:37:00;;;;;;;5.20;1.67;;;19.50;99.90;;;;;;5086894;28;20043;-51
2023/07/19 08:39:27;;;;;;;5.68;1.70;;;19.50;99.90;;;;;;5090018;28;20074;-49
2023/07/19 08:41:53;;;;;;;7.10;1.75;;;19.50;99.90;;;;;;5069759;28;20048;-51
2023/07/19 08:44:22;;;;;;;5.20;1.60;;;19.60;99.90;;;;;;5088441;28;20101;-48
2023/07/19 08:46:49;;;;;;;4.32;1.60;;;19.60;99.90;;;;;;5088830;28;20052;-50
2023/07/19 08:49:18;;;;;;;6.35;1.92;;;19.70;99.90;;;;;;5088972;28;20040;-49
2023/07/19 08:51:45;;;;;;;5.82;1.40;;;19.60;99.90;;;;;;5084532;28;20048;-50
2023/07/19 08:54:11;;;;;;;4.68;1.55;;;19.60;99.90;;;;;;5087280;28;20126;-51
2023/07/19 08:56:38;;;;;;;4.25;1.42;;;19.60;99.90;;;;;;5052468;28;20065;-49
2023/07/19 08:59:05;;;;;;;5.57;1.35;;;19.60;99.90;;;;;;5086621;28;20145;-51
2023/07/19 09:01:31;;;;;;;4.53;1.30;;;19.70;99.90;;;;;;5084812;28;20051;-50
2023/07/19 09:03:57;;;;;;;4.72;1.52;;;19.80;99.90;;;;;;5086694;28;20467;-46
2023/07/19 09:06:30;;;;;;;8.88;1.80;;;19.80;99.90;;;;;;5087887;28;20031;-46
2023/07/19 09:08:56;;;;;;;4.97;1.98;;;20.00;99.90;;;;;;5086109;28;20074;-48
2023/07/19 09:11:25;;;;;;;5.82;2.00;;;20.10;99.90;;;;;;5087942;28;20031;-51
2023/07/19 09:13:53;;;;;;;6.05;2.08;;;20.20;99.90;;;;;;5067328;28;20051;-49
2023/07/19 09:16:25;;;;;;;5.53;2.22;;;20.20;99.90;;;;;;5085635;28;20044;-48
2023/07/19 09:18:51;;;;;;;8.90;2.30;;;20.30;99.90;;;;;;5087712;28;20042;-48
2023/07/19 09:21:17;;;;;;;6.13;2.60;;;20.30;99.90;;;;;;5084709;28;20387;-50
2023/07/19 09:23:42;;;;;;;7.10;2.42;;;20.40;99.90;;;;;;5085114;28;20032;-46
2023/07/19 09:26:08;;;;;;;8.95;2.30;;;20.30;99.90;;;;;;5085557;28;20044;-49
2023/07/19 09:28:34;;;;;;;4.53;1.77;;;20.30;99.90;;;;;;5088214;28;20475;-47
2023/07/19 09:31:03;;;;;;;5.53;2.05;;;20.20;99.90;;;;;;5085729;28;20032;-50
2023/07/19 09:33:29;;;;;;;5.15;1.90;;;20.20;99.90;;;;;;5083109;28;20079;-49
2023/07/19 09:35:56;;;;;;;6.53;2.00;;;20.30;99.90;;;;;;5081603;28;20090;-49
2023/07/19 09:38:23;;;;;;;6.03;1.58;;;20.30;99.90;;;;;;5067245;28;20031;-48
2023/07/19 09:40:51;;;;;;;6.55;1.90;;;20.50;99.90;;;;;;5085471;28;20123;-51
2023/07/19 09:43:16;;;;;;;6.72;1.70;;;20.50;99.90;;;;;;5082640;28;20071;-46
2023/07/19 09:45:45;;;;;;;5.65;1.85;;;20.70;99.90;;;;;;5082775;28;20464;-47
2023/07/19 09:48:11;;;;;;;4.75;1.58;;;20.80;99.90;;;;;;5082779;28;20107;-47
2023/07/19 09:50:41;;;;;;;4.45;1.42;;;20.90;99.90;;;;;;5084420;28;20495;-47
2023/07/19 09:53:11;;;;;;;4.85;1.50;;;21.00;99.90;;;;;;5083427;28;20484;-49
2023/07/19 09:55:37;;;;;;;5.55;1.52;;;21.20;99.90;;;;;;5087939;28;20122;-49
2023/07/19 09:58:07;;;;;;;5.45;1.42;;;21.30;99.90;;;;;;5103103;28;20463;-49
2023/07/19 10:00:34;;;;;;;6.78;1.27;;;21.30;99.90;;;;;;5109357;28;20044;-47
2023/07/19 10:02:59;;;;;;;5.20;1.50;;;21.40;99.90;;;;;;5109513;28;20044;-50
2023/07/19 10:05:28;;;;;;;4.40;1.15;;;21.30;99.90;;;;;;5109583;28;20035;-49
2023/07/19 10:08:04;;;;;;;4.75;1.50;;;21.40;99.90;;;;;;5108246;28;20071;-49
2023/07/19 10:10:41;;;;;;;5.45;1.48;;;21.40;99.90;;;;;;5090001;28;20047;-48
2023/07/19 10:13:07;;;;;;;3.72;1.00;;;21.40;99.90;;;;;;5108819;28;20039;-51
2023/07/19 10:15:34;;;;;;;6.75;1.83;;;21.40;99.90;;;;;;5108974;28;20096;-51
2023/07/19 10:18:01;;;;;;;3.67;1.20;;;21.20;99.90;;;;;;5108034;28;20034;-50
2023/07/19 10:20:35;;;;;;;6.50;1.40;;;21.10;99.90;;;;;;5109783;28;20471;-49
2023/07/19 10:23:05;;;;;;;;;;;21.10;99.90;;;;;;5087344;28;20478;-49
2023/07/19 10:25:46;;;;;;;4.22;1.30;;;21.00;99.90;;;;;;5092938;28;19963;-51
2023/07/19 10:28:13;;;;;;;4.38;0.93;;;21.00;99.90;;;;;;5112780;28;20375;-48
2023/07/19 10:30:58;;;;;;;4.97;1.00;;;21.10;99.90;;;;;;5113957;28;20035;-48
2023/07/19 10:33:28;;;;;;;4.47;1.20;;;21.10;99.90;;;;;;5113803;28;20035;-51
2023/07/19 10:36:12;;;;;;;3.25;0.93;;;21.10;99.90;;;;;;5113622;28;20067;-50
2023/07/19 10:38:38;;;;;;;4.32;1.10;;;21.10;99.90;;;;;;5113649;28;20031;-51
2023/07/19 10:41:08;;;;;;;3.78;0.85;;;21.00;99.90;;;;;;5113666;28;20126;-50
2023/07/19 10:43:36;;;;;;;3.63;0.90;;;21.10;99.90;;;;;;5113756;28;20115;-48
2023/07/19 10:46:05;;;;;;;3.53;1.00;;;21.10;99.90;;;;;;5095185;28;20132;-51
2023/07/19 10:48:32;;;;;;;3.75;1.00;;;21.10;99.90;;;;;;5113500;28;20035;-49
2023/07/19 10:51:00;;;;;;;3.05;1.08;;;21.10;99.90;;;;;;5113930;28;20134;-49
2023/07/19 10:53:26;;;;;;;3.17;0.90;;;21.10;99.90;;;;;;5113205;28;20070;-49
2023/07/19 10:55:53;;;;;;;2.78;0.80;;;21.10;99.90;;;;;;5113202;28;20071;-50
2023/07/19 10:58:19;;;;;;;3.92;1.15;;;21.10;99.90;;;;;;5085306;28;20056;-51
2023/07/19 11:00:45;;;;;;;3.78;1.05;;;21.10;99.90;;;;;;5071682;28;20039;-48
2023/07/19 11:03:15;;;;;;;2.95;0.90;;;21.10;99.90;;;;;;5073445;28;20502;-50
2023/07/19 11:05:47;;;;;;;5.03;1.10;;;21.10;99.90;;;;;;5073194;28;20033;-48
2023/07/19 11:08:24;;;;;;;4.60;1.08;;;21.10;99.90;;;;;;5073241;28;20036;-49
2023/07/19 11:10:50;;;;;;;4.18;1.20;;;21.10;99.90;;;;;;5072728;28;20036;-49
2023/07/19 11:13:18;;;;;;;3.97;1.15;;;21.20;99.90;;;;;;5073286;28;20048;-48
2023/07/19 11:15:48;;;;;;;3.45;1.08;;;21.20;99.90;;;;;;5077727;28;20042;-48
2023/07/19 11:18:27;;;;;;;4.70;1.17;;;21.40;99.90;;;;;;5076855;28;20051;-48
2023/07/19 11:20:57;;;;;;;3.78;1.10;;;21.50;99.90;;;;;;5077372;28;20039;-47
2023/07/19 11:23:24;;;;;;;5.70;1.45;;;21.60;99.90;;;;;;5076493;28;20033;-49
2023/07/19 11:25:50;;;;;;;4.07;1.27;;;21.70;99.90;;;;;;5075060;28;20040;-47
2023/07/19 11:28:35;;;;;;;4.25;1.27;;;21.80;99.90;;;;;;5077102;28;20036;-50
2023/07/19 11:31:02;;;;;;;5.82;1.13;;;21.80;99.90;;;;;;5077487;28;20159;-47
2023/07/19 11:33:28;;;;;;;3.17;1.10;;;21.80;99.90;;;;;;5076046;28;20055;-46
2023/07/19 11:35:54;;;;;;;4.35;1.50;;;21.90;99.90;;;;;;5076356;28;20491;-48
2023/07/19 11:38:19;;;;;;;5.00;1.20;;;21.90;99.90;;;;;;5058998;28;20445;-51
2023/07/19 11:40:45;;;;;;;4.32;1.10;;;22.00;99.90;;;;;;5076004;28;20043;-50
2023/07/19 11:43:11;;;;;;;4.80;1.20;;;22.20;99.90;;;;;;5057649;28;20040;-50
2023/07/19 11:45:36;;;;;;;3.53;1.08;;;22.40;99.90;;;;;;5076342;28;20140;-46
2023/07/19 11:48:03;;;;;;;5.35;1.40;;;22.40;99.90;;;;;;5078352;28;20503;-49
2023/07/19 11:50:29;;;;;;;4.28;1.30;;;22.40;99.90;;;;;;5077543;28;20028;-49
2023/07/19 11:52:56;;;;;;;4.75;1.45;;;22.30;99.90;;;;;;5075479;28;20036;-50
2023/07/19 11:55:24;;;;;;;5.25;1.60;;;22.20;99.90;;;;;;5076145;28;20036;-48
2023/07/19 11:57:52;;;;;;;4.00;1.52;;;22.10;99.90;;;;;;5077969;28;20134;-52
2023/07/19 12:00:22;;;;;;;3.20;1.00;;;21.90;99.90;;;;;;5104248;28;20043;-48
2023/07/19 12:02:50;;;;;;;4.75;1.35;;;21.80;99.90;;;;;;5090856;28;20048;-51
2023/07/19 12:05:18;;;;;;;3.63;1.20;;;21.70;99.90;;;;;;5111529;28;20382;-51
2023/07/19 12:07:44;;;;;;;5.38;1.50;;;21.50;99.90;;;;;;5081781;28;20048;-50
2023/07/19 12:10:10;;;;;;;5.45;1.60;;;21.50;99.90;;;;;;5103325;27;20386;-51
2023/07/19 12:12:36;;;;;;;4.03;1.40;;;21.40;99.90;;;;;;5103018;28;20028;-47
2023/07/19 12:15:06;;;;;;;6.22;1.40;;;21.40;99.90;;;;;;5086342;28;20039;-47
2023/07/19 12:17:33;;;;;;;4.15;1.55;;;21.30;99.90;;;;;;5104344;27;20105;-48
2023/07/19 12:20:00;;;;;;;6.35;1.75;;;21.20;99.90;;;;;;5103460;28;20036;-48
2023/07/19 12:22:29;;;;;;;5.18;1.92;;;21.20;99.90;;;;;;5103985;28;20043;-47
2023/07/19 12:24:55;;;;;;;4.88;1.50;;;21.20;99.90;;;;;;5108437;28;20506;-51
2023/07/19 12:27:21;;;;;;;6.50;2.00;;;21.20;99.90;;;;;;5088038;28;20059;-50
2023/07/19 12:29:47;;;;;;;5.45;1.85;;;21.30;99.90;;;;;;5089487;28;20082;-46
2023/07/19 12:32:14;;;;;;;5.55;2.47;;;21.30;99.90;;;;;;5089567;28;20051;-47
2023/07/19 12:34:41;;;;;;;3.85;1.75;;;21.40;99.90;;;;;;5089692;28;20048;-51
2023/07/19 12:37:07;;;;;;;4.28;1.60;;;21.50;99.90;;;;;;5088119;28;20044;-49
2023/07/19 12:39:32;;;;;;;5.38;1.90;;;21.50;99.90;;;;;;5088795;28;20074;-47
2023/07/19 12:41:59;;;;;;;5.28;1.70;;;21.60;99.90;;;;;;5089428;28;20047;-51